^^
Datos históricos de la estación: Murcia-Puente Tocinos
Diario Informe para Enero 16, 2019 Unidades:  Métrico    Ingés   Ambas
Diario Semanal Mensual Anual
  Máxima: Mínima: Promedio:
Temperatura: 24.2 °C 17.3 °C 20.3 °C
Punto de rocio: 15.5 °C 10.1 °C 13.4 °C
Humedad: 84% 45.8% 66%
Velocidad viento: 19km/h 0km/h 9.4km/h
Racha viento: 42.6km/h - -
Viento- - ENE
Presión: 1014.0 hPa 1004.4 hPa -
Precipitación: 0.0 mm    
 
 
Tabla de datos para Enero 16, 2019
Hora Temperatura Punto de rocio Presión Viento Velocidad viento Racha viento Humedad Intensidad lluvia(por hora) Nubes
00:04 19.2 °C 15.5 °C 1012.0 hPa NE 11.1 km/h 31.7 km/h 79.1% 0.0 mm
00:07 19 °C 15.3 °C 1012.0 hPa NE 11.1 km/h 32.2 km/h 79% 0.0 mm
00:13 18.9 °C 15.2 °C 1012.0 hPa NE 17.2 km/h 23.3 km/h 79% 0.0 mm
00:39 18.6 °C 14.7 °C 1014.0 hPa NE 11.6 km/h 22.5 km/h 78.1% 0.0 mm
00:44 18.6 °C 14.7 °C 1012.1 hPa NE 11.1 km/h 30.6 km/h 78% 0.0 mm
00:49 18.6 °C 14.7 °C 1012.1 hPa NE 12.2 km/h 30.6 km/h 78% 0.0 mm
00:54 18.6 °C 14.7 °C 1012.1 hPa ENE 14 km/h 24.1 km/h 78% 0.0 mm
00:59 18.6 °C 14.8 °C 1012.1 hPa NE 12.6 km/h 19.3 km/h 78.6% 0.0 mm
01:04 18.6 °C 14.9 °C 1012.1 hPa NE 10 km/h 19 km/h 79% 0.0 mm
01:09 18.5 °C 14.8 °C 1012.1 hPa NE 10 km/h 22.2 km/h 79% 0.0 mm
01:14 18.4 °C 14.7 °C 1012.1 hPa NE 10 km/h 22.5 km/h 79% 0.0 mm
01:19 18.3 °C 14.6 °C 1012.1 hPa NE 11.1 km/h 22.5 km/h 79% 0.0 mm
01:24 18.2 °C 14.6 °C 1012.1 hPa NE 13 km/h 22.2 km/h 79.8% 0.0 mm
01:29 18.2 °C 14.6 °C 1012.1 hPa NE 12.7 km/h 22.5 km/h 80% 0.0 mm
01:34 18.1 °C 14.6 °C 1012.2 hPa NE 12.2 km/h 19.3 km/h 80% 0.0 mm
01:39 18 °C 14.5 °C 1012.2 hPa NE 10.9 km/h 16.7 km/h 80% 0.0 mm
01:44 18 °C 14.5 °C 1012.2 hPa NE 8.7 km/h 20.4 km/h 80% 0.0 mm
01:49 17.9 °C 14.4 °C 1012.2 hPa NNE 9 km/h 20.9 km/h 80% 0.0 mm
01:54 17.9 °C 14.4 °C 1012.1 hPa NNE 9.5 km/h 16.1 km/h 80% 0.0 mm
01:59 17.8 °C 14.5 °C 1012.1 hPa NNE 8.2 km/h 11.1 km/h 80.9% 0.0 mm
02:04 17.7 °C 14.4 °C 1012.2 hPa NNE 6.5 km/h 11.3 km/h 81% 0.0 mm
02:09 17.7 °C 14.4 °C 1012.2 hPa NE 5.9 km/h 12.2 km/h 81% 0.0 mm
02:14 17.7 °C 14.4 °C 1012.2 hPa NNE 5 km/h 13 km/h 81% 0.0 mm
02:16 17.6 °C 14.3 °C 1012.2 hPa NNE 5 km/h 12.9 km/h 81% 0.0 mm
02:44 17.4 °C 14.3 °C 1012.2 hPa NNE 5 km/h 13 km/h 82% 0.0 mm
02:49 17.4 °C 14.3 °C 1012.0 hPa NE 5.5 km/h 14.8 km/h 82% 0.0 mm
02:54 17.4 °C 14.4 °C 1011.9 hPa NE 6.5 km/h 14.5 km/h 82.4% 0.0 mm
02:59 17.4 °C 14.5 °C 1011.9 hPa NE 6.5 km/h 11.3 km/h 83% 0.0 mm
03:04 17.4 °C 14.5 °C 1011.9 hPa NE 6.5 km/h 9.7 km/h 83% 0.0 mm
03:09 17.4 °C 14.5 °C 1011.7 hPa NNE 5.9 km/h 9.7 km/h 83% 0.0 mm
03:14 17.4 °C 14.3 °C 1011.7 hPa NNE 5 km/h 9.5 km/h 82.1% 0.0 mm
03:19 17.3 °C 14.2 °C 1011.8 hPa NNE 5 km/h 9.7 km/h 82% 0.0 mm
03:24 17.3 °C 14.2 °C 1011.8 hPa NNE 5 km/h 8 km/h 82.1% 0.0 mm
03:29 17.4 °C 14.3 °C 1011.8 hPa NE 4.6 km/h 8 km/h 82% 0.0 mm
03:34 17.4 °C 14.3 °C 1011.8 hPa NNE 3.9 km/h 8 km/h 82% 0.0 mm
03:39 17.4 °C 14.3 °C 1011.8 hPa North 3.6 km/h 8 km/h 82% 0.0 mm
03:44 17.4 °C 14.1 °C 1011.8 hPa NNE 3.2 km/h 9.3 km/h 81.1% 0.0 mm
03:49 17.4 °C 14.2 °C 1011.8 hPa NNE 3.7 km/h 9.7 km/h 81.3% 0.0 mm
03:54 17.4 °C 14.1 °C 1011.6 hPa NNE 4.7 km/h 9.7 km/h 81% 0.0 mm
03:59 17.4 °C 14.1 °C 1011.6 hPa North 4.8 km/h 8.4 km/h 81% 0.0 mm
04:04 17.4 °C 14.1 °C 1011.7 hPa NNE 5 km/h 8 km/h 81% 0.0 mm
04:09 17.4 °C 14.1 °C 1011.7 hPa NE 4.9 km/h 8 km/h 81% 0.0 mm
04:14 17.4 °C 14.1 °C 1011.7 hPa NE 4.7 km/h 8 km/h 81% 0.0 mm
04:19 17.4 °C 14.1 °C 1011.7 hPa NE 4.3 km/h 8 km/h 81% 0.0 mm
04:24 17.4 °C 14.1 °C 1011.7 hPa NE 3.9 km/h 7.6 km/h 81% 0.0 mm
04:29 17.4 °C 14.1 °C 1011.7 hPa NE 3.6 km/h 8 km/h 81% 0.0 mm
04:34 17.4 °C 14.2 °C 1011.7 hPa NNE 3.2 km/h 7.4 km/h 81% 0.0 mm
04:39 17.5 °C 14.2 °C 1011.6 hPa NNE 3.2 km/h 8 km/h 81% 0.0 mm
04:44 17.5 °C 14.2 °C 1011.6 hPa NNE 3.2 km/h 8 km/h 81% 0.0 mm
04:49 17.5 °C 14.2 °C 1011.6 hPa NNE 3.5 km/h 8 km/h 81% 0.0 mm
04:54 17.5 °C 14.2 °C 1011.5 hPa NNE 3.9 km/h 6.4 km/h 81% 0.0 mm
04:59 17.5 °C 14.2 °C 1011.5 hPa NE 3.5 km/h 6.4 km/h 81% 0.0 mm
05:04 17.5 °C 14.2 °C 1011.5 hPa NE 2.9 km/h 6.9 km/h 81% 0.0 mm
05:09 17.5 °C 14.2 °C 1011.5 hPa North 2.9 km/h 8.4 km/h 81% 0.0 mm
05:14 17.4 °C 14.1 °C 1011.5 hPa NNE 2.9 km/h 8 km/h 81% 0.0 mm
05:19 17.4 °C 14.1 °C 1011.5 hPa NE 3 km/h 7.4 km/h 81% 0.0 mm
05:24 17.4 °C 14.1 °C 1011.5 hPa ENE 3.2 km/h 8 km/h 81% 0.0 mm
05:29 17.4 °C 14.1 °C 1011.5 hPa ENE 3.5 km/h 8 km/h 81% 0.0 mm
05:34 17.4 °C 14.1 °C 1011.5 hPa NE 3.9 km/h 8 km/h 81% 0.0 mm
05:39 17.4 °C 14.1 °C 1011.4 hPa NNE 3.5 km/h 8 km/h 81% 0.0 mm
05:44 17.4 °C 14.1 °C 1011.4 hPa NNE 2.9 km/h 3.2 km/h 81% 0.0 mm
05:49 17.4 °C 14.1 °C 1011.4 hPa NNE 1.8 km/h   81% 0.0 mm
05:54 17.4 °C 14.2 °C 1011.3 hPa Calm     81% 0.0 mm
05:59 17.5 °C 14.2 °C 1011.3 hPa Calm     81% 0.0 mm
06:04 17.5 °C 14.2 °C 1011.3 hPa Calm   5.8 km/h 81% 0.0 mm
06:09 17.6 °C 14.3 °C 1011.2 hPa Calm   6.4 km/h 81% 0.0 mm
06:14 17.6 °C 14.3 °C 1011.2 hPa Calm   3.7 km/h 81% 0.0 mm
06:19 17.6 °C 14.3 °C 1011.2 hPa NNO 0.9 km/h 7.4 km/h 81% 0.0 mm
06:24 17.6 °C 14.3 °C 1011.2 hPa NE 2.2 km/h 8.4 km/h 81% 0.0 mm
06:29 17.6 °C 14.3 °C 1011.2 hPa NE 2.5 km/h 8 km/h 81% 0.0 mm
06:34 17.5 °C 14.2 °C 1011.3 hPa NE 2.9 km/h 8.7 km/h 81% 0.0 mm
06:39 17.6 °C 14.3 °C 1011.3 hPa NNE 3.7 km/h 10 km/h 81% 0.0 mm
06:44 17.6 °C 14.3 °C 1011.3 hPa NNE 5 km/h 10 km/h 81% 0.0 mm
06:49 17.6 °C 14.3 °C 1011.3 hPa NNE 5.3 km/h 11.1 km/h 81% 0.0 mm
06:54 17.6 °C 14.4 °C 1011.3 hPa NE 5.8 km/h 14.8 km/h 81.4% 0.0 mm
06:59 17.6 °C 14.5 °C 1011.3 hPa NE 6 km/h 14.5 km/h 82% 0.0 mm
07:04 17.6 °C 14.4 °C 1011.3 hPa NNE 6.5 km/h 11.3 km/h 82% 0.0 mm
07:09 17.5 °C 14.4 °C 1011.3 hPa NNE 6.6 km/h 11.3 km/h 82% 0.0 mm
07:14 17.5 °C 14.6 °C 1011.3 hPa NNE 6.9 km/h 11.3 km/h 82.9% 0.0 mm
07:19 17.6 °C 14.7 °C 1011.3 hPa NNE 6.2 km/h 10 km/h 83% 0.0 mm
07:24 17.6 °C 14.7 °C 1011.3 hPa NE 5 km/h 9.7 km/h 83% 0.0 mm
07:29 17.6 °C 14.7 °C 1011.3 hPa NE 5 km/h 9.3 km/h 83% 0.0 mm
07:34 17.6 °C 14.7 °C 1011.3 hPa NE 5 km/h 10.3 km/h 83% 0.0 mm
07:39 17.6 °C 14.7 °C 1011.3 hPa ENE 5 km/h 11.3 km/h 83% 0.0 mm
07:44 17.7 °C 14.9 °C 1011.3 hPa ENE 5 km/h 11.3 km/h 83.9% 0.0 mm
07:49 17.7 °C 14.9 °C 1011.4 hPa NE 5 km/h 9.7 km/h 84% 0.0 mm
07:54 17.7 °C 15 °C 1011.4 hPa NE 5 km/h 8 km/h 84% 0.0 mm
07:59 17.8 °C 14.9 °C 1011.4 hPa NNE 4.9 km/h 8.4 km/h 83.3% 0.0 mm
08:04 17.9 °C 15 °C 1011.5 hPa NNE 4.7 km/h 13 km/h 83% 0.0 mm
08:09 18.1 °C 15 °C 1011.5 hPa NNE 5.8 km/h 14.8 km/h 82.1% 0.0 mm
08:14 18.3 °C 15 °C 1011.5 hPa NE 7.6 km/h 14.5 km/h 81.2% 0.0 mm
08:19 18.5 °C 15.1 °C 1011.5 hPa NNE 7.6 km/h 13.7 km/h 80.7% 0.0 mm
08:24 18.6 °C 14.9 °C 1011.5 hPa NE 7.6 km/h 16.7 km/h 79% 0.0 mm
08:29 18.7 °C 14.8 °C 1011.5 hPa NE 8 km/h 16.7 km/h 77.9% 0.0 mm
08:34 18.7 °C 14.6 °C 1011.5 hPa NE 8.7 km/h 16.7 km/h 77.4% 0.0 mm
08:39 18.7 °C 14.7 °C 1011.5 hPa ENE 9 km/h 16.1 km/h 77.8% 0.0 mm
08:44 18.8 °C 14.6 °C 1011.5 hPa NE 9.5 km/h 14.5 km/h 76.6% 0.0 mm
08:49 18.8 °C 14.5 °C 1011.6 hPa NE 9.2 km/h 14.5 km/h 75.9% 0.0 mm
08:54 18.9 °C 14.2 °C 1011.6 hPa NE 8.7 km/h 13 km/h 74.2% 0.0 mm
08:59 19.1 °C 14.2 °C 1011.6 hPa NE 8.6 km/h 15.6 km/h 73.5% 0.0 mm
09:04 19.1 °C 14.1 °C 1011.6 hPa NE 8.4 km/h 16.1 km/h 72.6% 0.0 mm
09:09 19.2 °C 14 °C 1011.5 hPa ENE 7.8 km/h 13.7 km/h 71.6% 0.0 mm
09:14 19.5 °C 13.7 °C 1011.5 hPa ENE 6.9 km/h 14.5 km/h 69.3% 0.0 mm
09:19 19.7 °C 14 °C 1011.5 hPa ENE 6.2 km/h 13.7 km/h 69.4% 0.0 mm
09:24 19.8 °C 14.3 °C 1011.5 hPa NE 5 km/h 14.5 km/h 70.5% 0.0 mm
09:29 19.8 °C 14.2 °C 1011.5 hPa NE 5.7 km/h 15.6 km/h 70% 0.0 mm
09:34 19.7 °C 14 °C 1011.5 hPa NNE 6.9 km/h 16.1 km/h 69.7% 0.0 mm
09:39 19.7 °C 14.2 °C 1011.4 hPa NNE 6.8 km/h 11.9 km/h 70.2% 0.0 mm
09:44 19.9 °C 14.1 °C 1011.4 hPa NE 6.5 km/h 11.3 km/h 69.2% 0.0 mm
09:49 20.1 °C 14 °C 1011.4 hPa NE 6.2 km/h 14.8 km/h 67.9% 0.0 mm
09:54 20.2 °C 14 °C 1011.3 hPa NE 5.8 km/h 14.5 km/h 67.7% 0.0 mm
09:59 20.2 °C 14.1 °C 1011.3 hPa ENE 5.8 km/h 11.9 km/h 67.8% 0.0 mm
10:04 20.3 °C 13.7 °C 1011.3 hPa NE 5.8 km/h 13 km/h 65.8% 0.0 mm
10:09 20.4 °C 13.4 °C 1011.2 hPa NNE 6.2 km/h 14.8 km/h 63.9% 0.0 mm
10:14 20.4 °C 13.3 °C 1011.2 hPa NE 6.9 km/h 15.6 km/h 63.9% 0.0 mm
10:19 20.3 °C 13 °C 1011.2 hPa NE 7.6 km/h 16.1 km/h 63% 0.0 mm
10:24 20.4 °C 13 °C 1011.0 hPa NE 8.7 km/h 14.5 km/h 62.3% 0.0 mm
10:29 20.7 °C 13.1 °C 1011.0 hPa NE 8.6 km/h 13 km/h 61.8% 0.0 mm
10:34 20.9 °C 13.1 °C 1011.0 hPa NE 8.4 km/h 14.8 km/h 61% 0.0 mm
10:39 21 °C 12.7 °C 1011.0 hPa ENE 8.1 km/h 16.4 km/h 59% 0.0 mm
10:44 21.1 °C 12.6 °C 1011.0 hPa NE 7.6 km/h 18 km/h 58.5% 0.0 mm
10:49 20.9 °C 12.1 °C 1011.0 hPa ENE 8 km/h 17.7 km/h 56.9% 0.0 mm
10:54 21.1 °C 11.7 °C 1010.8 hPa Este 8.7 km/h 17.2 km/h 54.9% 0.0 mm
10:59 21.3 °C 11.8 °C 1010.8 hPa ENE 8.7 km/h 17.7 km/h 54.8% 0.0 mm
11:04 21.3 °C 11.6 °C 1010.9 hPa NNE 8.7 km/h 16.7 km/h 53.6% 0.0 mm
11:09 21.2 °C 11.6 °C 1010.9 hPa NE 8.7 km/h 16.1 km/h 54.3% 0.0 mm
11:14 21.4 °C 11.3 °C 1010.9 hPa NE 8.7 km/h 16.7 km/h 52.5% 0.0 mm
11:19 21.6 °C 11.7 °C 1010.9 hPa NNE 8.9 km/h 16.1 km/h 53.5% 0.0 mm
11:24 21.7 °C 11.7 °C 1010.7 hPa NNE 9.5 km/h 14.5 km/h 52.9% 0.0 mm
11:29 21.9 °C 11.6 °C 1010.7 hPa NE 8.2 km/h 23.3 km/h 52.1% 0.0 mm
11:34 22 °C 10.2 °C 1010.7 hPa ENE 5.8 km/h 24.1 km/h 46.9% 0.0 mm
11:39 22.2 °C 10.1 °C 1010.6 hPa NE 6.9 km/h 19.3 km/h 46.2% 0.0 mm
11:44 22.2 °C 10.4 °C 1010.6 hPa NE 8.7 km/h 15.6 km/h 47.1% 0.0 mm
11:49 22.3 °C 10.6 °C 1010.6 hPa NE 9 km/h 25.1 km/h 47.3% 0.0 mm
11:54 22.2 °C 10.3 °C 1010.4 hPa NE 9.5 km/h 25.9 km/h 47% 0.0 mm
11:59 22.1 °C 10.3 °C 1010.4 hPa NE 10.9 km/h 25.7 km/h 47% 0.0 mm
12:04 22.2 °C 10.1 °C 1010.4 hPa ENE 13 km/h 24.1 km/h 46.3% 0.0 mm
12:09 22.3 °C 10.1 °C 1010.3 hPa NE 11.7 km/h 24.1 km/h 45.8% 0.0 mm
12:14 22.4 °C 10.3 °C 1010.3 hPa NE 9.5 km/h 19.8 km/h 46.2% 0.0 mm
12:19 22.5 °C 10.5 °C 1010.3 hPa NE 10.1 km/h 22.2 km/h 46.7% 0.0 mm
12:24 22.6 °C 10.6 °C 1010.1 hPa NE 11.1 km/h 25.9 km/h 46.5% 0.0 mm
12:29 22.7 °C 10.6 °C 1010.1 hPa NE 12.2 km/h 25.9 km/h 46.2% 0.0 mm
12:34 22.8 °C 10.5 °C 1010.1 hPa ENE 14 km/h 25.7 km/h 46% 0.0 mm
12:39 22.9 °C 10.6 °C 1010.0 hPa NNE 12.5 km/h 23.7 km/h 45.9% 0.0 mm
12:44 22.9 °C 10.7 °C 1010.0 hPa NE 10 km/h 24.1 km/h 46% 0.0 mm
12:49 22.8 °C 10.8 °C 1010.0 hPa NE 11.5 km/h 24.5 km/h 46.7% 0.0 mm
12:54 22.7 °C 10.9 °C 1009.7 hPa NE 14 km/h 25.9 km/h 47.4% 0.0 mm
12:59 22.7 °C 11.1 °C 1009.7 hPa NE 13.6 km/h 25.7 km/h 48% 0.0 mm
13:04 23 °C 11.4 °C 1009.7 hPa NE 13 km/h 22.5 km/h 48% 0.0 mm
13:09 23.3 °C 11.6 °C 1009.6 hPa NE 12.3 km/h 22.5 km/h 47.9% 0.0 mm
13:14 23.3 °C 11.4 °C 1009.6 hPa NE 11.1 km/h 22.5 km/h 47.2% 0.0 mm
13:19 23 °C 11.5 °C 1009.6 hPa NE 12.2 km/h 25.9 km/h 48.2% 0.0 mm
13:24 22.9 °C 11.8 °C 1009.5 hPa NE 14 km/h 25.7 km/h 49.6% 0.0 mm
13:29 23.2 °C 12 °C 1009.5 hPa ENE 13.9 km/h 26.2 km/h 49.3% 0.0 mm
13:34 23.3 °C 12 °C 1009.5 hPa NE 13.7 km/h 25.7 km/h 49.2% 0.0 mm
13:39 23.2 °C 11.9 °C 1009.3 hPa ENE 13.7 km/h 24.1 km/h 49% 0.0 mm
13:44 23.2 °C 11.8 °C 1009.3 hPa NE 13.7 km/h 37 km/h 48.8% 0.0 mm
13:49 22.9 °C 11.9 °C 1009.3 hPa NE 14.7 km/h 37 km/h 49.7% 0.0 mm
13:54 23.1 °C 11.9 °C 1009.1 hPa ENE 16.4 km/h 32.2 km/h 49.3% 0.0 mm
13:59 23.3 °C 12.2 °C 1009.1 hPa NE 15.3 km/h 25.7 km/h 49.6% 0.0 mm
14:04 23.4 °C 12 °C 1009.1 hPa NE 13.7 km/h 27.8 km/h 48.9% 0.0 mm
14:09 23.3 °C 12 °C 1008.8 hPa NE 14.4 km/h 27.4 km/h 49.1% 0.0 mm
14:14 23.4 °C 12.3 °C 1008.8 hPa NE 15.6 km/h 28.2 km/h 49.7% 0.0 mm
14:19 23.4 °C 12.3 °C 1008.8 hPa NE 15 km/h 27.8 km/h 49.6% 0.0 mm
14:24 23.3 °C 12.4 °C 1008.8 hPa NE 14 km/h 31.7 km/h 50.1% 0.0 mm
14:29 23.5 °C 12.4 °C 1008.8 hPa NE 14.6 km/h 32.2 km/h 49.9% 0.0 mm
14:34 23.6 °C 12.2 °C 1008.8 hPa NE 15.6 km/h 32.8 km/h 49.1% 0.0 mm
14:39 23.4 °C 12.2 °C 1008.5 hPa NE 16.5 km/h 33.8 km/h 49.5% 0.0 mm
14:44 23.4 °C 12.3 °C 1008.5 hPa NE 18 km/h 29 km/h 49.8% 0.0 mm
14:49 23.4 °C 12.4 °C 1008.5 hPa NE 17.4 km/h 33.3 km/h 50% 0.0 mm
14:54 23.5 °C 12.3 °C 1008.3 hPa NE 16.4 km/h 42.6 km/h 49.4% 0.0 mm
14:59 23.7 °C 11.5 °C 1008.3 hPa ESE 16.4 km/h 41.8 km/h 46.2% 0.0 mm
15:04 23.9 °C 11.7 °C 1008.3 hPa ESE 16.4 km/h 29 km/h 46.2% 0.0 mm
15:09 24 °C 11.7 °C 1008.0 hPa SE 15.6 km/h 24.1 km/h 45.9% 0.0 mm
15:14 23.9 °C 11.6 °C 1008.0 hPa SE 14 km/h 24.1 km/h 46% 0.0 mm
15:19 24 °C 11.9 °C 1008.0 hPa ESE 13.6 km/h 22.5 km/h 46.6% 0.0 mm
15:24 24 °C 12 °C 1007.7 hPa ESE 13 km/h 24.1 km/h 47% 0.0 mm
15:29 23.9 °C 12.1 °C 1007.7 hPa ESE 13 km/h 24.1 km/h 47.4% 0.0 mm
15:34 24 °C 12.3 °C 1007.7 hPa ESE 13 km/h 22.5 km/h 47.7% 0.0 mm
15:39 24.1 °C 12.7 °C 1007.5 hPa ESE 12.7 km/h 28.2 km/h 48.9% 0.0 mm
15:44 24.2 °C 12.8 °C 1007.5 hPa ESE 12.2 km/h 27.4 km/h 49.1% 0.0 mm
15:49 24.1 °C 12.8 °C 1007.5 hPa ESE 12.9 km/h 26.2 km/h 49.3% 0.0 mm
15:54 24 °C 12.9 °C 1007.5 hPa ESE 14 km/h 26.2 km/h 50% 0.0 mm
15:59 23.8 °C 12.9 °C 1007.5 hPa ESE 14.7 km/h 25.9 km/h 50.5% 0.0 mm
16:04 23.9 °C 13.1 °C 1007.5 hPa ESE 15.6 km/h 24.5 km/h 51% 0.0 mm
16:09 23.9 °C 13.1 °C 1007.2 hPa SE 15 km/h 29.8 km/h 50.9% 0.0 mm
16:14 23.6 °C 13.2 °C 1007.2 hPa ESE 14 km/h 30.6 km/h 51.9% 0.0 mm
16:19 23.5 °C 13.2 °C 1007.2 hPa ESE 15.2 km/h 27.4 km/h 52.6% 0.0 mm
16:24 23.7 °C 13.2 °C 1007.1 hPa ESE 17.2 km/h 25.7 km/h 51.8% 0.0 mm
16:29 23.8 °C 13.2 °C 1007.1 hPa ESE 15.9 km/h 28.6 km/h 51.5% 0.0 mm
16:34 23.8 °C 13.1 °C 1007.1 hPa ESE 13.7 km/h 29.6 km/h 51.4% 0.0 mm
16:39 23.7 °C 13.2 °C 1006.9 hPa SE 14.5 km/h 29 km/h 51.9% 0.0 mm
16:44 23.7 °C 13.1 °C 1006.9 hPa SE 16.1 km/h 27.4 km/h 51.4% 0.0 mm
16:49 23.8 °C 13.3 °C 1006.9 hPa ESE 15.2 km/h 24.1 km/h 51.7% 0.0 mm
16:54 24 °C 13.3 °C 1006.6 hPa ESE 13.7 km/h 25.9 km/h 51.2% 0.0 mm
16:59 23.9 °C 13.2 °C 1006.6 hPa SE 12.9 km/h 25.7 km/h 51.1% 0.0 mm
17:04 23.8 °C 13.3 °C 1006.6 hPa ESE 11.9 km/h 25.9 km/h 51.9% 0.0 mm
17:09 23.5 °C 13.3 °C 1006.5 hPa Este 12.6 km/h 24.1 km/h 52.6% 0.0 mm
17:14 23.4 °C 13.2 °C 1006.5 hPa ENE 13.7 km/h 22.5 km/h 52.9% 0.0 mm
17:19 23.2 °C 13.2 °C 1006.5 hPa Este 12.3 km/h 22.5 km/h 53.1% 0.0 mm
17:24 23.3 °C 13.2 °C 1006.3 hPa Este 10 km/h 20.9 km/h 53% 0.0 mm
17:29 23.6 °C 13.4 °C 1006.3 hPa ESE 10.7 km/h 22.5 km/h 52.9% 0.0 mm
17:34 23.6 °C 13.3 °C 1006.3 hPa ESE 11.9 km/h 24.1 km/h 52.4% 0.0 mm
17:39 23.4 °C 13.2 °C 1006.1 hPa ESE 12.3 km/h 27 km/h 52.9% 0.0 mm
17:44 23.2 °C 13.4 °C 1006.1 hPa ESE 13 km/h 28.2 km/h 54% 0.0 mm
17:49 23.1 °C 13.3 °C 1006.1 hPa ESE 14.7 km/h 27.4 km/h 54.3% 0.0 mm
17:54 23.1 °C 13.5 °C 1006.0 hPa SE 17.2 km/h 27.8 km/h 55% 0.0 mm
17:59 23.1 °C 13.6 °C 1006.0 hPa SE 15.9 km/h 27.8 km/h 55% 0.0 mm
18:04 23 °C 13.5 °C 1006.0 hPa SE 14 km/h 27.4 km/h 55.2% 0.0 mm
18:09 22.9 °C 13.7 °C 1006.0 hPa ESE 14.9 km/h 27.8 km/h 56% 0.0 mm
18:14 22.9 °C 13.7 °C 1006.0 hPa SE 16.4 km/h 29.6 km/h 56% 0.0 mm
18:19 23.1 °C 13.8 °C 1006.0 hPa ESE 15.1 km/h 29 km/h 56% 0.0 mm
18:24 22.9 °C 13.7 °C 1005.8 hPa ESE 13 km/h 27.8 km/h 56.2% 0.0 mm
18:29 22.7 °C 13.7 °C 1005.8 hPa ESE 14.3 km/h 27.4 km/h 57% 0.0 mm
18:34 22.7 °C 13.7 °C 1005.8 hPa ESE 16.4 km/h 27.8 km/h 57% 0.0 mm
18:39 22.5 °C 13.6 °C 1005.7 hPa ESE 16.3 km/h 29.6 km/h 57% 0.0 mm
18:44 22.3 °C 13.6 °C 1005.7 hPa ESE 16.1 km/h 29.6 km/h 57.9% 0.0 mm
18:49 22.2 °C 13.6 °C 1005.7 hPa ESE 17.2 km/h 29.6 km/h 58% 0.0 mm
18:54 22.2 °C 13.6 °C 1005.7 hPa ESE 19 km/h 27.4 km/h 58.3% 0.0 mm
18:59 22.1 °C 13.5 °C 1005.7 hPa Este 17.8 km/h 28.2 km/h 58.4% 0.0 mm
19:04 22 °C 13.5 °C 1005.7 hPa ESE 16.1 km/h 27.8 km/h 58.5% 0.0 mm
19:09 22 °C 13.4 °C 1005.5 hPa ESE 16.5 km/h 25.9 km/h 58.2% 0.0 mm
19:14 21.8 °C 13.5 °C 1005.5 hPa ESE 17.2 km/h 31.5 km/h 59% 0.0 mm
19:19 21.7 °C 13.4 °C 1005.5 hPa ESE 16.8 km/h 32.2 km/h 59% 0.0 mm
19:24 21.7 °C 13.3 °C 1005.5 hPa ESE 16.1 km/h 29 km/h 59% 0.0 mm
19:29 21.7 °C 13.3 °C 1005.5 hPa ESE 15.6 km/h 27.8 km/h 59% 0.0 mm
19:34 21.7 °C 13.3 °C 1005.5 hPa ESE 14.8 km/h 28.6 km/h 59% 0.0 mm
19:39 21.5 °C 13.2 °C 1005.4 hPa ESE 15.4 km/h 30.6 km/h 59% 0.0 mm
19:44 21.4 °C 13.3 °C 1005.4 hPa ESE 16.4 km/h 30.6 km/h 59.9% 0.0 mm
19:49 21.3 °C 13.2 °C 1005.4 hPa ESE 16.3 km/h 29.6 km/h 60% 0.0 mm
19:54 21.2 °C 13.2 °C 1005.3 hPa ESE 16.1 km/h 29 km/h 60.1% 0.0 mm
19:59 21.2 °C 13.1 °C 1005.3 hPa ESE 15.9 km/h 27.4 km/h 60% 0.0 mm
20:04 21.2 °C 13.3 °C 1005.3 hPa ESE 15.6 km/h 22.5 km/h 60.7% 0.0 mm
20:09 21.2 °C 13.3 °C 1005.1 hPa ESE 14.6 km/h 20.9 km/h 61% 0.0 mm
20:14 21.1 °C 13.3 °C 1005.1 hPa ESE 13 km/h 20.9 km/h 61.1% 0.0 mm
20:19 21.1 °C 13.5 °C 1005.2 hPa ESE 11.8 km/h 20.9 km/h 61.7% 0.0 mm
20:24 21.1 °C 13.6 °C 1005.2 hPa ESE 10 km/h 22.2 km/h 62% 0.0 mm
20:29 21.1 °C 13.7 °C 1005.2 hPa ESE 10.4 km/h 22.5 km/h 62.7% 0.0 mm
20:34 20.9 °C 13.8 °C 1005.2 hPa ESE 11.1 km/h 18.5 km/h 63.5% 0.0 mm
20:39 20.9 °C 13.9 °C 1005.1 hPa ESE 10.7 km/h 19.3 km/h 64.3% 0.0 mm
20:44 20.7 °C 13.9 °C 1005.1 hPa ESE 10 km/h 20.9 km/h 65% 0.0 mm
20:49 20.8 °C 14 °C 1005.1 hPa ESE 10 km/h 20.9 km/h 65% 0.0 mm
20:54 20.7 °C 14 °C 1005.1 hPa ESE 10 km/h 24.5 km/h 65.4% 0.0 mm
20:59 20.7 °C 14 °C 1005.1 hPa ESE 10.1 km/h 24.1 km/h 66% 0.0 mm
21:04 20.6 °C 14 °C 1005.1 hPa SE 10.3 km/h 13.7 km/h 66.1% 0.0 mm
21:09 20.6 °C 14 °C 1004.9 hPa SE 8.8 km/h 16.7 km/h 66% 0.0 mm
21:14 20.6 °C 14 °C 1004.9 hPa SE 6.5 km/h 16.7 km/h 66% 0.0 mm
21:19 20.4 °C 13.9 °C 1004.9 hPa ESE 7.2 km/h 14.5 km/h 66% 0.0 mm
21:24 20.4 °C 13.8 °C 1004.8 hPa SE 8.4 km/h 12.9 km/h 66% 0.0 mm
21:29 20.3 °C 13.8 °C 1004.8 hPa ESE 7 km/h 11.1 km/h 66% 0.0 mm
21:34 20.3 °C 13.8 °C 1004.9 hPa SE 4.7 km/h 13.7 km/h 66.3% 0.0 mm
21:39 20.2 °C 13.9 °C 1004.9 hPa SE 6 km/h 14.5 km/h 66.9% 0.0 mm
21:44 20.2 °C 13.9 °C 1004.9 hPa ESE 8.4 km/h 13 km/h 67% 0.0 mm
21:49 20.2 °C 13.9 °C 1004.9 hPa ESE 7.1 km/h 13 km/h 67% 0.0 mm
21:54 20.1 °C 13.8 °C 1004.9 hPa SE 5 km/h 12.9 km/h 67% 0.0 mm
21:59 20 °C 13.7 °C 1004.9 hPa ESE 5.6 km/h 11.3 km/h 67% 0.0 mm
22:04 19.8 °C 13.6 °C 1004.9 hPa Este 6.5 km/h 11.3 km/h 67.2% 0.0 mm
22:09 19.7 °C 13.6 °C 1004.9 hPa NE 6.5 km/h 11.3 km/h 68% 0.0 mm
22:14 19.7 °C 13.6 °C 1004.9 hPa ENE 6.5 km/h 9.7 km/h 68% 0.0 mm
22:19 19.6 °C 13.6 °C 1004.9 hPa ENE 5.5 km/h 8.4 km/h 68% 0.0 mm
22:24 19.6 °C 13.6 °C 1004.9 hPa NE 3.9 km/h 8 km/h 68% 0.0 mm
22:29 19.6 °C 13.5 °C 1004.9 hPa ENE 3.9 km/h 8 km/h 68% 0.0 mm
22:34 19.5 °C 13.6 °C 1004.9 hPa NE 3.9 km/h 10 km/h 68.8% 0.0 mm
22:39 19.3 °C 13.5 °C 1004.9 hPa NE 4.6 km/h 10 km/h 69% 0.0 mm
22:44 19.2 °C 13.5 °C 1004.9 hPa NE 5.8 km/h 9.7 km/h 69.6% 0.0 mm
22:49 19.1 °C 13.4 °C 1004.9 hPa NE 5.8 km/h 10 km/h 69.5% 0.0 mm
22:54 18.9 °C 13.4 °C 1004.9 hPa NNE 5.8 km/h 11.1 km/h 70% 0.0 mm
22:59 18.8 °C 13.4 °C 1004.9 hPa NE 6 km/h 11.9 km/h 70.5% 0.0 mm
23:04 18.7 °C 13.4 °C 1004.9 hPa NE 6.5 km/h 11.3 km/h 71% 0.0 mm
23:09 18.7 °C 13.3 °C 1004.9 hPa NE 6.6 km/h 11.3 km/h 71% 0.0 mm
23:14 18.7 °C 13.5 °C 1004.9 hPa NE 6.9 km/h 9.7 km/h 71.9% 0.0 mm
23:19 18.6 °C 13.5 °C 1004.9 hPa NE 6.7 km/h 14.8 km/h 72% 0.0 mm
23:24 18.6 °C 13.6 °C 1004.8 hPa NE 6.5 km/h 14.5 km/h 72.7% 0.0 mm
23:29 18.4 °C 13.5 °C 1004.8 hPa NE 6.5 km/h 9.7 km/h 73% 0.0 mm
23:34 18.4 °C 13.5 °C 1004.8 hPa NE 6.5 km/h 9.7 km/h 73.2% 0.0 mm
23:39 18.4 °C 13.7 °C 1004.5 hPa NE 5.9 km/h 10 km/h 74% 0.0 mm
23:44 18.3 °C 13.6 °C 1004.5 hPa NE 5 km/h 9.7 km/h 74.1% 0.0 mm
23:49 18.3 °C 13.7 °C 1004.5 hPa NE 5.7 km/h 11.9 km/h 75% 0.0 mm
23:54 18.2 °C 13.9 °C 1004.4 hPa NNE 6.9 km/h 11.3 km/h 76.1% 0.0 mm
23:59 18.1 °C 14.1 °C 1004.4 hPa NNE 6.9 km/h 11.3 km/h 77.3% 0.0 mm
Murcia-Puente Tocinos, Espa?a
Compliments of Weather Underground - 3 mb

La estación de MeteoMurcia.com, publica sus datos en los siguientes proyectos:

Weather Underground PWS IMURCIAP2 Meteoclimatic www.awekas.at

W3Counter
Web Analytics